Time;durP1;ratioP1;P1;durP2;ratioP2;P2;SDS_P1;SDS_P2;PMS_P1;PMS_P2;Temp;Humidity;BMP_temperature;BMP_pressure;BME280_temperature;BME280_humidity;BME280_pressure;Samples;Min_cycle;Max_cycle;Signal;HPM_P1;HPM_P2
2023/02/25 00:01:30;;;;;;;10.10;3.70;;;4.40;1.00;;;;;;6159582;23;20277;-78
2023/02/25 00:03:59;;;;;;;10.82;3.78;;;4.30;1.00;;;;;;6159138;23;20218;-79
2023/02/25 00:06:27;;;;;;;13.57;4.00;;;4.30;1.00;;;;;;6159066;23;21040;-78
2023/02/25 00:08:55;;;;;;;10.52;4.03;;;4.30;1.00;;;;;;6160283;23;20719;-78
2023/02/25 00:11:24;;;;;;;20.67;5.25;;;4.20;1.00;;;;;;6160126;23;20230;-77
2023/02/25 00:13:51;;;;;;;12.70;4.25;;;4.20;1.00;;;;;;6160374;23;20294;-78
2023/02/25 00:16:21;;;;;;;13.60;5.18;;;4.20;1.00;;;;;;6159288;23;20223;-78
2023/02/25 00:18:48;;;;;;;11.57;3.45;;;4.20;1.00;;;;;;6160603;23;20222;-78
2023/02/25 00:21:16;;;;;;;15.38;4.53;;;4.20;1.00;;;;;;6158210;23;20219;-77
2023/02/25 00:23:44;;;;;;;8.77;3.47;;;4.10;1.00;;;;;;6157031;23;20324;-79
2023/02/25 00:26:14;;;;;;;14.77;4.55;;;4.20;1.00;;;;;;6159779;23;20605;-79
2023/02/25 00:28:41;;;;;;;10.70;3.65;;;4.20;1.00;;;;;;6157950;23;20218;-77
2023/02/25 00:31:10;;;;;;;12.50;3.78;;;4.20;1.00;;;;;;6155942;23;20219;-78
2023/02/25 00:33:40;;;;;;;6.28;1.83;;;4.00;1.00;;;;;;6140337;23;20938;-79
2023/02/25 00:36:08;;;;;;;9.23;1.38;;;3.70;1.00;;;;;;6141799;23;20234;-78
2023/02/25 00:38:36;;;;;;;10.02;1.30;;;3.30;1.00;;;;;;6156808;23;20211;-78
2023/02/25 00:41:19;;;;;;;4.63;1.30;;;3.10;1.00;;;;;;6158245;23;20219;-78
2023/02/25 00:43:50;;;;;;;6.28;1.50;;;2.90;1.00;;;;;;6159886;23;20214;-78
2023/02/25 00:46:18;;;;;;;6.13;1.40;;;2.80;1.00;;;;;;6158825;23;21011;-78
2023/02/25 00:48:46;;;;;;;5.82;1.80;;;2.80;1.00;;;;;;6159716;23;20211;-79
2023/02/25 00:51:15;;;;;;;5.40;1.95;;;2.70;1.00;;;;;;6157237;23;20266;-78
2023/02/25 00:53:43;;;;;;;6.35;1.70;;;2.70;1.00;;;;;;6154900;23;20620;-79
2023/02/25 00:56:14;;;;;;;9.10;3.75;;;2.70;1.00;;;;;;6160374;23;20222;-80
2023/02/25 00:58:44;;;;;;;7.07;2.28;;;2.60;1.00;;;;;;6158119;23;20247;-78
2023/02/25 01:01:21;;;;;;;6.93;2.38;;;2.70;1.00;;;;;;6161370;23;20242;-78
2023/02/25 01:03:49;;;;;;;7.80;2.50;;;2.70;1.00;;;;;;6159669;23;20237;-80
2023/02/25 01:06:16;;;;;;;6.57;1.90;;;2.70;1.00;;;;;;6162105;23;20221;-80
2023/02/25 01:08:43;;;;;;;5.88;2.28;;;2.70;1.00;;;;;;6161053;23;20217;-79
2023/02/25 01:11:14;;;;;;;7.72;2.40;;;2.70;1.00;;;;;;6160197;23;20207;-78
2023/02/25 01:13:43;;;;;;;8.32;3.10;;;2.80;1.00;;;;;;6161089;23;20705;-79
2023/02/25 01:16:12;;;;;;;9.48;3.03;;;2.80;1.00;;;;;;6160174;23;20214;-78
2023/02/25 01:18:39;;;;;;;7.18;2.85;;;2.90;1.00;;;;;;6159811;23;20211;-79
2023/02/25 01:21:08;;;;;;;9.82;2.88;;;2.90;1.00;;;;;;6161457;23;20221;-78
2023/02/25 01:23:35;;;;;;;6.65;2.20;;;2.90;1.00;;;;;;6159713;23;20214;-78
2023/02/25 01:26:04;;;;;;;5.93;2.20;;;3.00;1.00;;;;;;6161628;23;20206;-78
2023/02/25 01:28:34;;;;;;;8.15;2.50;;;2.90;1.00;;;;;;6161353;23;20294;-80
2023/02/25 01:31:02;;;;;;;6.50;2.45;;;3.00;1.00;;;;;;6159661;23;20218;-79
2023/02/25 01:33:29;;;;;;;8.68;2.60;;;3.00;1.00;;;;;;6159857;23;20298;-80
2023/02/25 01:35:57;;;;;;;7.70;2.90;;;3.10;1.00;;;;;;6160414;23;20273;-78
2023/02/25 01:38:24;;;;;;;7.55;2.55;;;3.10;1.00;;;;;;6161387;23;20282;-79
2023/02/25 01:40:57;;;;;;;6.68;2.92;;;3.20;1.00;;;;;;6162039;23;20293;-78
2023/02/25 01:43:25;;;;;;;6.85;2.55;;;3.20;1.00;;;;;;6159530;23;20297;-80
2023/02/25 01:45:55;;;;;;;8.60;2.63;;;3.20;1.00;;;;;;6161715;23;20708;-79
2023/02/25 01:48:27;;;;;;;10.18;2.72;;;3.30;1.00;;;;;;6160723;23;20222;-78
2023/02/25 01:50:58;;;;;;;6.78;2.55;;;3.30;1.00;;;;;;6157979;23;20740;-78
2023/02/25 01:53:28;;;;;;;7.35;3.13;;;3.30;1.00;;;;;;6162583;23;20261;-80
2023/02/25 01:55:57;;;;;;;9.20;2.92;;;3.30;1.00;;;;;;6162481;23;20890;-79
2023/02/25 01:58:26;;;;;;;7.47;3.13;;;3.30;1.00;;;;;;6161694;23;20214;-78
2023/02/25 02:00:54;;;;;;;9.93;3.08;;;3.40;1.00;;;;;;6163547;23;20218;-79
2023/02/25 02:03:26;;;;;;;14.85;3.83;;;3.40;1.00;;;;;;6162329;23;21313;-79
2023/02/25 02:06:03;;;;;;;8.90;3.35;;;3.50;1.00;;;;;;6163698;23;20221;-79
2023/02/25 02:08:32;;;;;;;10.98;3.22;;;3.50;1.00;;;;;;6160291;23;20214;-78
2023/02/25 02:11:00;;;;;;;8.15;3.00;;;3.50;1.00;;;;;;6163354;23;20219;-79
2023/02/25 02:13:28;;;;;;;8.77;3.60;;;3.60;1.00;;;;;;6149510;23;20265;-79
2023/02/25 02:16:18;;;;;;;6.63;2.58;;;3.60;1.00;;;;;;6163359;23;20214;-78
2023/02/25 02:18:54;;;;;;;10.20;3.28;;;3.50;1.00;;;;;;6162986;23;20305;-78
2023/02/25 02:21:46;;;;;;;8.70;2.92;;;3.50;1.00;;;;;;6161895;23;20214;-78
2023/02/25 02:24:43;;;;;;;9.80;2.63;;;3.50;1.00;;;;;;6162690;23;20218;-79
2023/02/25 02:27:14;;;;;;;6.93;3.00;;;3.60;1.00;;;;;;6133448;23;20214;-80
2023/02/25 02:30:25;;;;;;;12.65;2.83;;;3.60;1.00;;;;;;6152260;23;21047;-79
2023/02/25 02:33:09;;;;;;;8.18;3.20;;;3.60;1.00;;;;;;6137776;23;20233;-79
2023/02/25 02:35:49;;;;;;;7.22;3.22;;;3.60;1.00;;;;;;6161382;23;20214;-80
2023/02/25 02:38:25;;;;;;;7.00;2.30;;;3.60;1.00;;;;;;6161374;23;20214;-78
2023/02/25 02:41:03;;;;;;;5.90;3.10;;;3.60;1.00;;;;;;6162522;23;20296;-78
2023/02/25 02:43:39;;;;;;;8.25;2.70;;;3.60;1.00;;;;;;6160966;23;20214;-80
2023/02/25 02:46:13;;;;;;;6.60;2.97;;;3.60;1.00;;;;;;6162909;23;20222;-79
2023/02/25 02:48:50;;;;;;;7.78;2.40;;;3.60;1.00;;;;;;6161432;23;20985;-78
2023/02/25 02:51:21;;;;;;;6.88;3.20;;;3.60;1.00;;;;;;6161709;23;20345;-78
2023/02/25 02:53:53;;;;;;;8.25;2.65;;;3.60;1.00;;;;;;6162234;23;20247;-76
2023/02/25 02:56:23;;;;;;;6.97;3.20;;;3.50;1.00;;;;;;6160406;23;20215;-77
2023/02/25 02:58:54;;;;;;;7.65;2.65;;;3.60;1.00;;;;;;6161075;23;21047;-80
2023/02/25 03:01:26;;;;;;;8.07;2.67;;;3.60;1.00;;;;;;6161579;23;20241;-80
2023/02/25 03:04:00;;;;;;;6.30;2.55;;;3.60;1.00;;;;;;6162955;23;21057;-80
2023/02/25 03:06:31;;;;;;;6.70;3.08;;;3.50;1.00;;;;;;6148447;23;20215;-79
2023/02/25 03:09:04;;;;;;;8.88;3.42;;;3.50;1.00;;;;;;6161068;23;20219;-78
2023/02/25 03:11:31;;;;;;;6.70;3.40;;;3.50;1.00;;;;;;6160445;23;20293;-79
2023/02/25 03:13:58;;;;;;;6.63;3.28;;;3.60;1.00;;;;;;6160645;23;20305;-78
2023/02/25 03:16:28;;;;;;;6.47;3.88;;;3.50;1.00;;;;;;6159259;23;20306;-78
2023/02/25 03:19:02;;;;;;;8.27;3.60;;;3.50;1.00;;;;;;6161771;23;20226;-78
2023/02/25 03:21:37;;;;;;;6.18;2.92;;;3.50;1.00;;;;;;6160665;23;20241;-79
2023/02/25 03:24:08;;;;;;;7.25;3.30;;;3.50;1.00;;;;;;6160664;23;20241;-78
2023/02/25 03:26:35;;;;;;;6.35;2.67;;;3.50;1.00;;;;;;6161038;23;20281;-79
2023/02/25 03:29:02;;;;;;;7.35;2.67;;;3.50;1.00;;;;;;6159162;23;20226;-79
2023/02/25 03:31:35;;;;;;;5.70;2.38;;;3.40;1.00;;;;;;6161854;23;20269;-78
2023/02/25 03:34:08;;;;;;;5.70;2.67;;;3.50;1.00;;;;;;6160858;23;20222;-79
2023/02/25 03:36:40;;;;;;;5.68;2.15;;;3.50;1.00;;;;;;6127337;23;20243;-78
2023/02/25 03:39:11;;;;;;;7.20;3.40;;;3.40;1.00;;;;;;6156232;23;20245;-79
2023/02/25 03:41:44;;;;;;;7.30;2.90;;;3.40;1.00;;;;;;6162809;23;20500;-79
2023/02/25 03:44:16;;;;;;;7.28;3.75;;;3.40;1.00;;;;;;6120902;23;20298;-79
2023/02/25 03:46:46;;;;;;;5.75;1.90;;;3.40;1.00;;;;;;6162193;23;20214;-79
2023/02/25 03:49:19;;;;;;;6.80;2.10;;;3.40;1.00;;;;;;6161473;23;20965;-79
2023/02/25 03:51:49;;;;;;;5.25;1.77;;;3.30;1.00;;;;;;6163111;23;20214;-79
2023/02/25 03:54:17;;;;;;;10.07;3.10;;;3.30;1.00;;;;;;6161486;23;20309;-80
2023/02/25 03:56:46;;;;;;;6.32;3.30;;;3.30;1.00;;;;;;6161744;23;20241;-78
2023/02/25 03:59:13;;;;;;;6.28;3.00;;;3.40;1.00;;;;;;6161096;23;20301;-78
2023/02/25 04:01:42;;;;;;;7.35;3.55;;;3.40;1.00;;;;;;6161729;23;20257;-78
2023/02/25 04:04:09;;;;;;;6.72;3.22;;;3.40;1.00;;;;;;6160522;23;20222;-78
2023/02/25 04:06:37;;;;;;;7.03;3.33;;;3.40;1.00;;;;;;6162812;23;20223;-79
2023/02/25 04:09:05;;;;;;;6.63;3.00;;;3.40;1.00;;;;;;6161055;23;20218;-76
2023/02/25 04:11:32;;;;;;;6.03;3.17;;;3.40;1.00;;;;;;6162058;23;20219;-77
2023/02/25 04:13:59;;;;;;;6.72;3.13;;;3.40;1.00;;;;;;6160451;23;20313;-78
2023/02/25 04:16:26;;;;;;;7.03;3.35;;;3.40;1.00;;;;;;6160234;23;20214;-78
2023/02/25 04:18:55;;;;;;;5.55;2.42;;;3.40;1.00;;;;;;6162210;23;20306;-77
2023/02/25 04:21:31;;;;;;;5.90;2.60;;;3.30;1.00;;;;;;6161778;23;20245;-78
2023/02/25 04:23:59;;;;;;;6.90;2.80;;;3.30;1.00;;;;;;6162407;23;20305;-79
2023/02/25 04:26:26;;;;;;;5.72;2.20;;;3.30;1.00;;;;;;6159986;23;20214;-80
2023/02/25 04:28:54;;;;;;;6.88;2.42;;;3.30;1.00;;;;;;6161814;23;20274;-78
2023/02/25 04:31:21;;;;;;;5.82;1.90;;;3.30;1.00;;;;;;6159170;23;20225;-79
2023/02/25 04:33:50;;;;;;;5.38;1.80;;;3.30;1.00;;;;;;6136341;23;20255;-78
2023/02/25 04:36:25;;;;;;;6.63;2.47;;;3.20;1.00;;;;;;6160843;23;20218;-78
2023/02/25 04:38:53;;;;;;;5.50;2.00;;;3.20;1.00;;;;;;6160549;23;20215;-78
2023/02/25 04:41:23;;;;;;;5.60;1.50;;;3.20;1.00;;;;;;6158315;23;20218;-78
2023/02/25 04:43:50;;;;;;;5.00;1.63;;;3.20;1.00;;;;;;6160933;23;20270;-78
2023/02/25 04:46:17;;;;;;;5.80;1.83;;;3.20;1.00;;;;;;6158510;23;20944;-77
2023/02/25 04:48:44;;;;;;;6.07;1.80;;;3.20;1.00;;;;;;6161711;23;20242;-76
2023/02/25 04:51:11;;;;;;;6.65;2.00;;;3.20;1.00;;;;;;6160419;23;20235;-78
2023/02/25 04:53:38;;;;;;;5.40;1.65;;;3.20;1.00;;;;;;6160405;23;20218;-78
2023/02/25 04:56:07;;;;;;;6.18;2.40;;;3.10;1.00;;;;;;6121418;23;20269;-78
2023/02/25 04:58:38;;;;;;;8.50;3.13;;;3.10;1.00;;;;;;6161434;23;20368;-78
2023/02/25 05:01:08;;;;;;;7.25;3.17;;;3.10;1.00;;;;;;6159019;23;20211;-78
2023/02/25 05:03:35;;;;;;;7.15;2.80;;;3.10;1.00;;;;;;6160278;23;20529;-77
2023/02/25 05:06:05;;;;;;;7.60;2.95;;;3.10;1.00;;;;;;6160668;23;20250;-77
2023/02/25 05:08:33;;;;;;;7.60;2.80;;;3.10;1.00;;;;;;6161726;23;20219;-77
2023/02/25 05:11:02;;;;;;;7.22;2.65;;;3.10;1.00;;;;;;6161839;23;20211;-78
2023/02/25 05:13:31;;;;;;;7.97;3.00;;;3.00;1.00;;;;;;6160185;23;20266;-78
2023/02/25 05:16:10;;;;;;;7.45;2.95;;;3.00;1.00;;;;;;6161603;23;20273;-77
2023/02/25 05:18:39;;;;;;;6.53;2.50;;;3.00;1.00;;;;;;6151324;23;21505;-78
2023/02/25 05:21:10;;;;;;;7.45;2.90;;;3.00;1.00;;;;;;6161747;23;20218;-78
2023/02/25 05:23:37;;;;;;;5.72;2.15;;;3.00;1.00;;;;;;6162997;23;20665;-77
2023/02/25 05:26:05;;;;;;;5.72;2.03;;;3.00;1.00;;;;;;6161678;23;20237;-77
2023/02/25 05:28:32;;;;;;;6.45;2.15;;;3.00;1.00;;;;;;6162367;23;20306;-77
2023/02/25 05:31:03;;;;;;;5.65;2.03;;;3.00;1.00;;;;;;6162868;23;20215;-78
2023/02/25 05:33:32;;;;;;;5.47;1.95;;;3.00;1.00;;;;;;6163811;23;20305;-77
2023/02/25 05:35:59;;;;;;;5.28;1.70;;;3.00;1.00;;;;;;6162778;23;20219;-78
2023/02/25 05:38:27;;;;;;;5.70;1.92;;;3.00;1.00;;;;;;6164792;23;20266;-78
2023/02/25 05:40:57;;;;;;;6.32;1.85;;;3.00;1.00;;;;;;6163982;23;20226;-77
2023/02/25 05:43:24;;;;;;;5.95;1.27;;;3.00;1.00;;;;;;6162032;23;20215;-77
2023/02/25 05:45:54;;;;;;;5.22;1.92;;;3.00;1.00;;;;;;6162691;23;20214;-78
2023/02/25 05:48:22;;;;;;;4.85;1.50;;;3.00;1.00;;;;;;6162732;23;20326;-78
2023/02/25 05:50:51;;;;;;;4.63;1.52;;;2.90;1.00;;;;;;6163342;23;20829;-78
2023/02/25 05:53:19;;;;;;;7.07;1.60;;;3.00;1.00;;;;;;6161245;23;20223;-79
2023/02/25 05:55:49;;;;;;;4.90;1.60;;;3.00;1.00;;;;;;6163541;23;20365;-78
2023/02/25 05:58:15;;;;;;;5.10;1.70;;;3.00;1.00;;;;;;6162095;23;20218;-78
2023/02/25 06:00:43;;;;;;;4.97;1.77;;;2.90;1.00;;;;;;6162069;23;20306;-77
2023/02/25 06:03:11;;;;;;;5.20;2.20;;;2.90;1.00;;;;;;6163628;23;20294;-78
2023/02/25 06:05:41;;;;;;;5.78;1.80;;;2.90;1.00;;;;;;6160361;23;20243;-78
2023/02/25 06:08:12;;;;;;;5.90;1.45;;;2.90;1.00;;;;;;6162161;23;20210;-79
2023/02/25 06:10:41;;;;;;;5.00;1.65;;;2.90;1.00;;;;;;6161724;23;21052;-78
2023/02/25 06:13:11;;;;;;;5.93;1.85;;;2.90;1.00;;;;;;6160399;23;20298;-77
2023/02/25 06:15:39;;;;;;;5.47;1.60;;;2.90;1.00;;;;;;6159504;23;20222;-76
2023/02/25 06:18:07;;;;;;;7.00;2.50;;;2.80;1.00;;;;;;6160313;23;20226;-75
2023/02/25 06:20:34;;;;;;;5.68;1.77;;;2.80;1.00;;;;;;6160983;23;20302;-75
2023/02/25 06:23:02;;;;;;;5.75;2.13;;;2.80;1.00;;;;;;6160523;23;20301;-77
2023/02/25 06:25:30;;;;;;;5.85;2.22;;;2.80;1.00;;;;;;6160493;23;20931;-78
2023/02/25 06:27:58;;;;;;;6.90;2.40;;;2.80;1.00;;;;;;6161002;23;20219;-77
2023/02/25 06:30:25;;;;;;;5.88;2.30;;;2.80;1.00;;;;;;6151824;23;20219;-77
2023/02/25 06:32:52;;;;;;;6.32;2.42;;;2.80;1.00;;;;;;6160800;23;20224;-76
2023/02/25 06:35:22;;;;;;;5.70;1.67;;;2.70;1.00;;;;;;6159760;23;20893;-77
2023/02/25 06:37:49;;;;;;;9.00;2.13;;;2.70;1.00;;;;;;6161290;23;20223;-77
2023/02/25 06:40:18;;;;;;;4.70;1.50;;;2.70;1.00;;;;;;6160050;23;20219;-77
2023/02/25 06:42:47;;;;;;;4.75;1.50;;;2.70;1.00;;;;;;6159768;23;20689;-77
2023/02/25 06:45:14;;;;;;;5.95;2.08;;;2.60;1.00;;;;;;6159100;23;20219;-77
2023/02/25 06:47:41;;;;;;;5.18;1.70;;;2.60;1.00;;;;;;6161082;23;20270;-76
2023/02/25 06:50:09;;;;;;;5.63;1.60;;;2.60;1.00;;;;;;6160835;23;20245;-75
2023/02/25 06:52:36;;;;;;;4.82;1.50;;;2.60;1.00;;;;;;6160499;23;20306;-76
2023/02/25 06:55:05;;;;;;;4.50;1.33;;;2.60;1.00;;;;;;6160282;23;20219;-77
2023/02/25 06:57:32;;;;;;;4.80;1.42;;;2.60;1.00;;;;;;6133947;23;20693;-75
2023/02/25 07:00:01;;;;;;;4.80;1.38;;;2.60;1.00;;;;;;6159522;23;20230;-75
2023/02/25 07:02:30;;;;;;;5.70;1.55;;;2.60;1.00;;;;;;6146412;23;20221;-76
2023/02/25 07:04:57;;;;;;;4.72;1.33;;;2.60;1.00;;;;;;6163270;23;20214;-74
2023/02/25 07:07:24;;;;;;;5.25;2.05;;;2.60;1.00;;;;;;6161357;23;20305;-74
2023/02/25 07:09:51;;;;;;;5.22;1.55;;;2.60;1.00;;;;;;6162482;23;20246;-75
2023/02/25 07:12:18;;;;;;;4.65;1.70;;;2.60;1.00;;;;;;6164453;23;20215;-76
2023/02/25 07:14:45;;;;;;;5.00;1.70;;;2.60;1.00;;;;;;6162349;23;20241;-75
2023/02/25 07:17:14;;;;;;;5.38;1.88;;;2.70;1.00;;;;;;6164105;23;20265;-74
2023/02/25 07:19:41;;;;;;;4.65;1.30;;;2.60;1.00;;;;;;6164780;23;20215;-74
2023/02/25 07:22:14;;;;;;;4.40;1.40;;;2.70;1.00;;;;;;6163938;23;20219;-74
2023/02/25 07:24:41;;;;;;;8.95;5.10;;;2.60;1.00;;;;;;6164186;23;21501;-74
2023/02/25 07:27:08;;;;;;;5.10;1.30;;;2.70;1.00;;;;;;6164430;23;20294;-74
2023/02/25 07:29:35;;;;;;;4.95;1.50;;;2.70;1.00;;;;;;6122521;23;20756;-75
2023/02/25 07:32:02;;;;;;;5.07;1.42;;;2.70;1.00;;;;;;6156056;23;20223;-75
2023/02/25 07:34:31;;;;;;;4.90;1.30;;;2.70;1.00;;;;;;6162473;23;20218;-76
2023/02/25 07:36:59;;;;;;;5.53;1.60;;;2.70;1.00;;;;;;6162996;23;20211;-76
2023/02/25 07:39:26;;;;;;;4.50;1.40;;;2.70;1.00;;;;;;6163709;23;20225;-77
2023/02/25 07:41:53;;;;;;;7.15;1.75;;;2.70;1.00;;;;;;6163504;23;20871;-76
2023/02/25 07:44:21;;;;;;;5.40;1.42;;;2.80;1.00;;;;;;6161160;23;20218;-75
2023/02/25 07:46:49;;;;;;;5.25;1.60;;;2.90;1.00;;;;;;6163427;23;20278;-75
2023/02/25 07:49:16;;;;;;;4.85;1.52;;;2.90;1.00;;;;;;6161467;23;20215;-76
2023/02/25 07:51:45;;;;;;;4.60;1.08;;;2.90;1.00;;;;;;6162473;23;20213;-76
2023/02/25 07:54:14;;;;;;;5.50;1.67;;;2.90;1.00;;;;;;6160843;23;20269;-77
2023/02/25 07:56:41;;;;;;;5.75;1.58;;;2.90;1.00;;;;;;6160294;23;20235;-77
2023/02/25 07:59:08;;;;;;;5.90;1.90;;;2.90;1.00;;;;;;6158856;23;20226;-75
2023/02/25 08:01:38;;;;;;;4.90;1.55;;;2.90;1.00;;;;;;6158936;23;20673;-76
2023/02/25 08:04:06;;;;;;;4.88;1.60;;;3.00;1.00;;;;;;6158465;23;20707;-76
2023/02/25 08:06:36;;;;;;;5.40;1.77;;;3.10;1.00;;;;;;6162058;23;20211;-76
2023/02/25 08:09:07;;;;;;;4.70;1.52;;;3.20;1.00;;;;;;6134375;23;20297;-76
2023/02/25 08:11:36;;;;;;;5.15;1.30;;;3.30;1.00;;;;;;6161888;23;20223;-77
2023/02/25 08:14:04;;;;;;;4.90;1.52;;;3.30;1.00;;;;;;6160618;23;20986;-75
2023/02/25 08:16:33;;;;;;;5.20;1.40;;;3.20;1.00;;;;;;6134894;23;20218;-78
2023/02/25 08:19:00;;;;;;;5.13;1.40;;;3.10;1.00;;;;;;6162348;23;20284;-76
2023/02/25 08:21:29;;;;;;;5.18;1.20;;;3.20;1.00;;;;;;6162304;23;20869;-76
2023/02/25 08:23:57;;;;;;;4.95;1.52;;;3.20;1.00;;;;;;6162367;23;20298;-78
2023/02/25 08:26:26;;;;;;;6.05;1.48;;;3.20;1.00;;;;;;6161230;23;20274;-77
2023/02/25 08:28:56;;;;;;;6.80;1.90;;;3.20;1.00;;;;;;6160917;23;20218;-77
2023/02/25 08:31:23;;;;;;;5.13;1.65;;;3.20;1.00;;;;;;6160558;23;20317;-75
2023/02/25 08:33:52;;;;;;;5.68;1.77;;;3.20;1.00;;;;;;6162367;23;20290;-76
2023/02/25 08:36:21;;;;;;;5.28;2.10;;;3.20;1.00;;;;;;6160921;23;20658;-77
2023/02/25 08:38:50;;;;;;;5.03;1.70;;;3.20;1.00;;;;;;6163627;23;20245;-77
2023/02/25 08:41:17;;;;;;;4.68;1.20;;;3.30;1.00;;;;;;6162938;23;20239;-77
2023/02/25 08:43:48;;;;;;;5.63;1.40;;;3.40;1.00;;;;;;6161826;23;20368;-77
2023/02/25 08:46:15;;;;;;;5.30;1.05;;;3.30;1.00;;;;;;6134098;23;20298;-77
2023/02/25 08:48:42;;;;;;;5.07;1.30;;;3.30;1.00;;;;;;6161371;23;20211;-77
2023/02/25 08:51:10;;;;;;;5.50;1.52;;;3.30;1.00;;;;;;6159866;23;20230;-77
2023/02/25 08:53:38;;;;;;;5.68;1.30;;;3.20;1.00;;;;;;6161958;23;20297;-77
2023/02/25 08:56:05;;;;;;;5.53;1.30;;;3.30;1.00;;;;;;6160261;23;20218;-76
2023/02/25 08:58:33;;;;;;;4.43;1.00;;;3.30;1.00;;;;;;6159182;23;20262;-77
2023/02/25 09:01:01;;;;;;;4.95;1.25;;;3.30;1.00;;;;;;6160461;23;20966;-75
2023/02/25 09:03:30;;;;;;;4.60;1.00;;;3.30;1.00;;;;;;6158935;23;20660;-76
2023/02/25 09:05:57;;;;;;;5.03;1.20;;;3.20;1.00;;;;;;6161129;23;20215;-76
2023/02/25 09:08:24;;;;;;;5.55;2.10;;;3.10;1.00;;;;;;6160079;23;20306;-76
2023/02/25 09:10:51;;;;;;;5.05;1.30;;;3.20;1.00;;;;;;6124489;23;20243;-75
2023/02/25 09:13:18;;;;;;;4.35;1.02;;;3.20;1.00;;;;;;6133474;23;20218;-75
2023/02/25 09:15:46;;;;;;;4.53;1.00;;;3.20;1.00;;;;;;6159734;23;20641;-75
2023/02/25 09:18:15;;;;;;;5.78;1.38;;;3.20;1.00;;;;;;6158531;23;20748;-75
2023/02/25 09:20:42;;;;;;;5.70;1.30;;;3.20;1.00;;;;;;6158347;23;20295;-75
2023/02/25 09:23:10;;;;;;;4.80;1.10;;;3.20;1.00;;;;;;6154735;23;20221;-76
2023/02/25 09:25:39;;;;;;;4.53;1.10;;;3.30;1.00;;;;;;6132476;23;20231;-77
2023/02/25 09:28:06;;;;;;;4.88;1.20;;;3.20;1.00;;;;;;6157397;23;20223;-76
2023/02/25 09:30:34;;;;;;;4.72;1.33;;;3.20;1.00;;;;;;6131680;23;20222;-75
2023/02/25 09:33:01;;;;;;;4.50;1.02;;;3.30;1.00;;;;;;6157681;23;20974;-77
2023/02/25 09:35:29;;;;;;;5.80;1.20;;;3.40;1.00;;;;;;6155558;23;20242;-76
2023/02/25 09:37:56;;;;;;;4.45;1.05;;;3.40;1.00;;;;;;6157740;23;20219;-75
2023/02/25 09:40:23;;;;;;;4.65;1.08;;;3.50;1.00;;;;;;6157848;23;20246;-75
2023/02/25 09:43:00;;;;;;;4.60;1.10;;;3.50;1.00;;;;;;6157169;23;20218;-76
2023/02/25 09:45:27;;;;;;;4.25;0.80;;;3.60;1.00;;;;;;6156455;23;20274;-74
2023/02/25 09:48:00;;;;;;;4.88;1.00;;;3.70;1.00;;;;;;6155655;23;20207;-74
2023/02/25 09:50:34;;;;;;;4.72;1.13;;;3.70;1.00;;;;;;6128386;23;20243;-74
2023/02/25 09:53:07;;;;;;;6.32;1.20;;;3.70;1.00;;;;;;6157724;23;20278;-73
2023/02/25 09:55:37;;;;;;;5.90;1.63;;;3.80;1.00;;;;;;6157176;23;21436;-77
2023/02/25 09:58:09;;;;;;;5.65;1.20;;;3.80;1.00;;;;;;6138621;23;20340;-78
2023/02/25 10:00:43;;;;;;;4.80;1.20;;;3.90;1.00;;;;;;6160075;23;20286;-78
2023/02/25 10:03:20;;;;;;;5.50;1.30;;;4.00;1.00;;;;;;6173968;23;20215;-77
2023/02/25 10:05:56;;;;;;;6.13;1.73;;;4.00;1.00;;;;;;6173972;23;20207;-77
2023/02/25 10:08:30;;;;;;;5.25;1.27;;;4.10;1.00;;;;;;6178233;23;20213;-78
2023/02/25 10:11:04;;;;;;;6.05;1.50;;;4.10;1.00;;;;;;6140910;23;20207;-80
2023/02/25 10:13:43;;;;;;;5.25;1.58;;;4.00;1.00;;;;;;6134835;23;20207;-79
2023/02/25 10:16:31;;;;;;;5.82;1.80;;;4.00;1.00;;;;;;6176101;23;20214;-81
2023/02/25 10:19:10;;;;;;;5.50;2.10;;;4.00;1.00;;;;;;6181774;23;20214;-81
2023/02/25 10:22:00;;;;;;;4.72;1.20;;;4.20;1.00;;;;;;6184374;23;20246;-79
2023/02/25 10:24:34;;;;;;;5.70;1.50;;;4.40;1.00;;;;;;6184407;23;20439;-80
2023/02/25 10:27:10;;;;;;;5.53;1.30;;;4.40;1.00;;;;;;6184768;23;20211;-77
2023/02/25 10:29:41;;;;;;;4.65;1.20;;;4.50;1.00;;;;;;6185077;23;20298;-79
2023/02/25 10:32:26;;;;;;;4.75;0.90;;;4.50;1.00;;;;;;6183702;23;20215;-79
2023/02/25 10:34:57;;;;;;;4.80;1.20;;;4.40;1.00;;;;;;6147073;23;20260;-79
2023/02/25 10:37:30;;;;;;;6.13;2.00;;;4.20;1.00;;;;;;6182468;23;20215;-80
2023/02/25 10:40:00;;;;;;;5.50;1.42;;;4.30;1.00;;;;;;6184660;23;20250;-79
2023/02/25 10:42:28;;;;;;;5.47;1.30;;;4.40;1.00;;;;;;6184586;23;20321;-80
2023/02/25 10:45:00;;;;;;;4.80;1.00;;;4.60;1.00;;;;;;6184178;23;20221;-79
2023/02/25 10:47:33;;;;;;;5.20;1.00;;;4.70;1.00;;;;;;6183346;23;20222;-79
2023/02/25 10:50:16;;;;;;;4.60;0.90;;;4.60;1.00;;;;;;6183269;23;20218;-79
2023/02/25 10:53:14;;;;;;;5.45;1.10;;;4.50;1.00;;;;;;6175760;23;20199;-79
2023/02/25 10:55:50;;;;;;;5.43;1.10;;;4.40;1.00;;;;;;6156628;23;20949;-79
2023/02/25 10:58:33;;;;;;;6.18;1.08;;;4.40;1.00;;;;;;6178604;23;20220;-79
2023/02/25 11:01:05;;;;;;;4.60;0.77;;;4.60;1.00;;;;;;6178724;23;20211;-79
2023/02/25 11:03:34;;;;;;;4.60;1.00;;;4.80;1.00;;;;;;6177794;23;20219;-80
2023/02/25 11:06:13;;;;;;;5.03;1.33;;;5.00;1.00;;;;;;6179020;23;20346;-80
2023/02/25 11:08:43;;;;;;;6.15;1.10;;;5.40;1.00;;;;;;6180080;23;20217;-79
2023/02/25 11:11:19;;;;;;;5.70;1.80;;;5.70;1.00;;;;;;6179117;23;20246;-80
2023/02/25 11:13:55;;;;;;;4.80;0.98;;;5.90;1.00;;;;;;6178698;23;20203;-80
2023/02/25 11:16:23;;;;;;;5.22;1.45;;;6.30;1.00;;;;;;6175099;23;20215;-79
2023/02/25 11:18:53;;;;;;;6.55;1.75;;;6.40;1.00;;;;;;6177734;23;20214;-79
2023/02/25 11:21:30;;;;;;;5.85;1.30;;;6.30;1.00;;;;;;6178259;23;20243;-80
2023/02/25 11:24:02;;;;;;;5.43;1.45;;;5.90;1.00;;;;;;6179491;23;20222;-81
2023/02/25 11:26:32;;;;;;;4.80;0.98;;;5.60;1.00;;;;;;6176284;23;20234;-80
2023/02/25 11:29:04;;;;;;;5.00;0.90;;;5.40;1.00;;;;;;6172233;23;20222;-79
2023/02/25 11:31:35;;;;;;;5.28;1.30;;;5.30;1.00;;;;;;6173089;23;20210;-81
2023/02/25 11:34:07;;;;;;;5.22;0.90;;;5.20;1.00;;;;;;6175494;23;20207;-80
2023/02/25 11:36:36;;;;;;;4.40;0.80;;;4.90;1.00;;;;;;6181356;23;20215;-80
2023/02/25 11:39:15;;;;;;;5.72;0.80;;;4.60;1.00;;;;;;6180891;23;20222;-79
2023/02/25 11:41:44;;;;;;;5.53;2.50;;;4.50;1.00;;;;;;6181561;23;20215;-80
2023/02/25 11:44:25;;;;;;;4.80;1.00;;;4.60;1.00;;;;;;6182110;23;20230;-80
2023/02/25 11:47:16;;;;;;;5.45;1.38;;;5.00;1.00;;;;;;6179308;23;20210;-81
2023/02/25 11:49:59;;;;;;;5.50;0.95;;;5.60;1.00;;;;;;6176351;23;20297;-80
2023/02/25 11:52:34;;;;;;;6.82;1.40;;;5.90;1.00;;;;;;6179084;23;20229;-79
2023/02/25 11:55:11;;;;;;;5.60;1.30;;;6.10;1.00;;;;;;6178492;23;20220;-80
2023/02/25 11:57:46;;;;;;;5.05;1.08;;;6.30;1.00;;;;;;6178354;23;20199;-80
2023/02/25 12:00:24;;;;;;;5.15;1.20;;;6.50;1.00;;;;;;6176448;23;20215;-80
2023/02/25 12:03:09;;;;;;;4.88;1.15;;;6.70;1.00;;;;;;6152868;23;20217;-80
2023/02/25 12:05:58;;;;;;;4.78;1.10;;;7.00;1.00;;;;;;6181668;23;20295;-79
2023/02/25 12:08:41;;;;;;;8.43;1.88;;;7.40;1.00;;;;;;6176609;23;20216;-79
2023/02/25 12:11:56;;;;;;;5.20;1.00;;;7.40;1.00;;;;;;6174885;23;20962;-80
2023/02/25 12:15:10;;;;;;;5.32;1.40;;;7.30;1.00;;;;;;6028099;23;20247;-81
2023/02/25 12:18:11;;;;;;;6.00;1.88;;;7.40;1.00;;;;;;6014886;23;21044;-79
2023/02/25 12:21:11;;;;;;;5.13;1.15;;;7.40;1.00;;;;;;6028540;23;20297;-80
2023/02/25 12:24:17;;;;;;;5.00;0.77;;;6.90;1.00;;;;;;6116627;23;20234;-81
2023/02/25 12:27:17;;;;;;;5.30;0.95;;;6.10;1.00;;;;;;6175919;23;20210;-79
2023/02/25 12:30:02;;;;;;;4.60;0.80;;;5.30;1.00;;;;;;6125330;23;20207;-80
2023/02/25 12:32:56;;;;;;;5.72;1.30;;;4.80;1.00;;;;;;6177643;23;20239;-80
2023/02/25 12:35:40;;;;;;;4.72;1.10;;;4.30;1.00;;;;;;6179975;23;20214;-78
2023/02/25 12:38:49;;;;;;;5.25;1.60;;;4.10;1.00;;;;;;6178347;23;20215;-79
2023/02/25 12:41:33;;;;;;;5.57;1.70;;;4.20;1.00;;;;;;6139315;23;20222;-79
2023/02/25 12:44:26;;;;;;;4.90;1.20;;;4.60;1.00;;;;;;6176133;23;20269;-79
2023/02/25 12:47:13;;;;;;;5.20;1.20;;;4.80;1.00;;;;;;6176099;23;20214;-79
2023/02/25 12:50:18;;;;;;;6.78;1.90;;;4.90;1.00;;;;;;6178376;23;20237;-78
2023/02/25 12:53:04;;;;;;;5.20;1.55;;;5.00;1.00;;;;;;6179671;23;20202;-79
2023/02/25 12:55:57;;;;;;;6.25;1.60;;;5.00;1.00;;;;;;6175557;23;20664;-79
2023/02/25 12:58:35;;;;;;;6.30;1.90;;;5.00;1.00;;;;;;6177409;23;20928;-79
2023/02/25 13:01:26;;;;;;;6.50;1.70;;;5.00;1.00;;;;;;6175114;23;20211;-78
2023/02/25 13:04:23;;;;;;;6.78;1.50;;;5.10;1.00;;;;;;6175230;23;20222;-80
2023/02/25 13:07:29;;;;;;;6.28;1.55;;;5.00;1.00;;;;;;6177288;23;20211;-80
2023/02/25 13:10:29;;;;;;;6.03;1.60;;;4.80;1.00;;;;;;6080437;23;20221;-79
2023/02/25 13:13:27;;;;;;;5.53;1.48;;;4.60;1.00;;;;;;6173695;23;20211;-79
2023/02/25 13:16:07;;;;;;;5.00;1.05;;;4.40;1.00;;;;;;6179192;23;20203;-79
2023/02/25 13:18:47;;;;;;;4.90;1.10;;;4.10;1.00;;;;;;6113873;23;20206;-78
2023/02/25 13:21:39;;;;;;;4.75;0.90;;;4.00;1.00;;;;;;6176353;23;20237;-79
2023/02/25 13:24:19;;;;;;;6.05;1.52;;;4.00;1.00;;;;;;6175706;23;21018;-79
2023/02/25 13:27:20;;;;;;;5.55;1.52;;;4.00;1.00;;;;;;6175412;23;20207;-81
2023/02/25 13:30:12;;;;;;;4.80;1.30;;;3.90;1.00;;;;;;6164091;23;20214;-79
2023/02/25 13:32:47;;;;;;;5.68;1.70;;;3.70;1.00;;;;;;6144789;23;20215;-79
2023/02/25 13:35:24;;;;;;;6.18;1.58;;;3.50;1.00;;;;;;6144327;23;20242;-78
2023/02/25 13:38:05;;;;;;;5.60;1.70;;;3.50;1.00;;;;;;6148259;23;20219;-80